Time;durP1;ratioP1;P1;durP2;ratioP2;P2;SDS_P1;SDS_P2;PMS_P1;PMS_P2;Temp;Humidity;BMP_temperature;BMP_pressure;BME280_temperature;BME280_humidity;BME280_pressure;Samples;Min_cycle;Max_cycle;Signal;HPM_P1;HPM_P2
2022/05/20 00:00:40;;;;;;;7.45;4.07;;;17.20;99.90;;;;;;5035392;28;20531;-59
2022/05/20 00:03:06;;;;;;;6.70;4.00;;;17.20;99.90;;;;;;5034636;28;20036;-59
2022/05/20 00:05:33;;;;;;;9.05;3.60;;;17.20;99.90;;;;;;5033481;28;20025;-59
2022/05/20 00:07:59;;;;;;;8.48;4.00;;;17.20;99.90;;;;;;5035187;28;20018;-59
2022/05/20 00:10:25;;;;;;;8.18;3.85;;;17.10;99.90;;;;;;5033458;28;20093;-59
2022/05/20 00:12:51;;;;;;;7.10;4.28;;;17.10;99.90;;;;;;5033507;28;20029;-59
2022/05/20 00:15:20;;;;;;;7.35;3.78;;;17.20;99.90;;;;;;5033436;28;20022;-59
2022/05/20 00:17:47;;;;;;;9.45;3.63;;;17.20;99.90;;;;;;5033885;28;20054;-59
2022/05/20 00:20:15;;;;;;;8.32;3.60;;;17.20;99.90;;;;;;5033553;28;20033;-58
2022/05/20 00:22:41;;;;;;;6.57;4.07;;;17.20;99.90;;;;;;5033339;28;20029;-59
2022/05/20 00:27:52;;;;;;;10.18;4.70;;;17.10;99.90;;;;;;5035121;28;20024;-58
2022/05/20 00:30:18;;;;;;;8.77;4.85;;;16.90;99.90;;;;;;5034561;28;20093;-59
2022/05/20 00:32:43;;;;;;;8.88;4.70;;;16.90;99.90;;;;;;5033454;28;20028;-59
2022/05/20 00:35:10;;;;;;;11.07;5.10;;;16.90;99.90;;;;;;5032985;28;20038;-59
2022/05/20 00:37:37;;;;;;;5.13;4.10;;;16.80;99.90;;;;;;5033047;28;20100;-55
2022/05/20 00:40:05;;;;;;;6.32;3.38;;;16.80;99.90;;;;;;5032955;28;20029;-57
2022/05/20 00:42:32;;;;;;;9.73;3.83;;;16.80;99.90;;;;;;5034270;28;20033;-58
2022/05/20 00:44:58;;;;;;;6.55;3.22;;;16.80;99.90;;;;;;5033196;28;20040;-58
2022/05/20 00:47:24;;;;;;;8.45;3.92;;;16.70;99.90;;;;;;5033437;28;20093;-54
2022/05/20 00:49:54;;;;;;;8.50;4.53;;;16.70;99.90;;;;;;5034218;28;20029;-58
2022/05/20 00:52:22;;;;;;;4.95;3.75;;;16.70;99.90;;;;;;5034622;28;20024;-59
2022/05/20 00:54:53;;;;;;;7.90;3.85;;;16.70;99.90;;;;;;5033925;28;20021;-57
2022/05/20 00:57:25;;;;;;;7.30;3.85;;;16.70;99.90;;;;;;5032755;28;20025;-58
2022/05/20 01:00:11;;;;;;;6.47;3.33;;;16.60;99.90;;;;;;5033511;28;20134;-56
2022/05/20 01:02:38;;;;;;;9.13;3.70;;;16.60;99.90;;;;;;5032691;28;20021;-57
2022/05/20 01:05:15;;;;;;;4.93;2.95;;;16.60;99.90;;;;;;5033627;28;20022;-59
2022/05/20 01:07:42;;;;;;;7.07;3.20;;;16.60;99.90;;;;;;5032574;28;20033;-58
2022/05/20 01:10:09;;;;;;;8.90;3.45;;;16.70;99.90;;;;;;5032827;28;20120;-58
2022/05/20 01:12:34;;;;;;;7.30;4.88;;;16.70;99.90;;;;;;5032474;28;20024;-59
2022/05/20 01:15:00;;;;;;;6.25;3.92;;;16.80;99.90;;;;;;5032183;28;20026;-55
2022/05/20 01:17:27;;;;;;;5.25;3.80;;;16.80;99.90;;;;;;5033686;28;20123;-56
2022/05/20 01:19:56;;;;;;;7.68;3.97;;;16.80;99.90;;;;;;5032796;28;20069;-59
2022/05/20 01:22:36;;;;;;;30.73;6.82;;;16.90;99.90;;;;;;5033488;28;20076;-59
2022/05/20 01:25:03;;;;;;;9.43;6.80;;;17.00;99.90;;;;;;5032307;28;20025;-59
2022/05/20 01:27:28;;;;;;;12.73;6.60;;;17.00;99.90;;;;;;5033438;28;20053;-59
2022/05/20 01:29:54;;;;;;;13.50;7.80;;;17.10;99.90;;;;;;5032320;28;20024;-56
2022/05/20 01:32:20;;;;;;;21.67;7.20;;;17.10;99.90;;;;;;5032002;28;20036;-56
2022/05/20 01:34:45;;;;;;;113.63;10.10;;;17.10;99.90;;;;;;5031806;28;20120;-55
2022/05/20 01:37:11;;;;;;;83.32;10.07;;;17.10;99.90;;;;;;5031902;28;20068;-58
2022/05/20 01:39:38;;;;;;;11.80;7.30;;;17.00;99.90;;;;;;5031832;28;20025;-54
2022/05/20 01:42:13;;;;;;;28.55;7.53;;;16.90;99.90;;;;;;5031882;28;20033;-56
2022/05/20 01:44:45;;;;;;;24.27;8.10;;;17.00;99.90;;;;;;5033542;28;20483;-57
2022/05/20 01:47:26;;;;;;;91.60;11.10;;;17.00;99.90;;;;;;5031477;28;20462;-58
2022/05/20 01:50:08;;;;;;;49.35;9.25;;;17.00;99.90;;;;;;5031785;28;20025;-58
2022/05/20 01:52:55;;;;;;;19.15;8.70;;;17.00;99.90;;;;;;5031890;28;20029;-56
2022/05/20 01:55:41;;;;;;;61.60;10.90;;;17.00;99.90;;;;;;5031548;28;20025;-57
2022/05/20 01:58:25;;;;;;;11.90;7.95;;;17.00;99.90;;;;;;5032451;28;20029;-55
2022/05/20 02:00:55;;;;;;;35.00;10.82;;;17.00;99.90;;;;;;5032454;28;20095;-59
2022/05/20 02:03:35;;;;;;;27.17;11.15;;;17.00;99.90;;;;;;5032975;28;20026;-56
2022/05/20 02:06:09;;;;;;;16.38;9.57;;;17.10;99.90;;;;;;5032791;28;20025;-59
2022/05/20 02:08:42;;;;;;;19.38;9.60;;;17.10;99.90;;;;;;5031580;28;20022;-58
2022/05/20 02:11:31;;;;;;;20.35;9.82;;;17.20;99.90;;;;;;5031619;28;20025;-56
2022/05/20 02:14:06;;;;;;;76.78;11.98;;;17.20;99.90;;;;;;5032208;28;20110;-58
2022/05/20 02:16:36;;;;;;;79.03;11.95;;;17.20;99.90;;;;;;5032167;28;20071;-58
2022/05/20 02:19:16;;;;;;;66.70;10.82;;;17.10;99.90;;;;;;5032792;28;20022;-59
2022/05/20 02:21:48;;;;;;;62.88;12.10;;;16.90;99.90;;;;;;5031458;28;20022;-59
2022/05/20 02:24:20;;;;;;;29.35;9.88;;;16.90;99.90;;;;;;5031460;28;20025;-59
2022/05/20 02:26:49;;;;;;;24.33;10.70;;;16.90;99.90;;;;;;5032602;28;20029;-59
2022/05/20 02:29:23;;;;;;;31.38;10.43;;;16.90;99.90;;;;;;5032603;28;20101;-59
2022/05/20 02:32:21;;;;;;;23.63;9.63;;;17.00;99.90;;;;;;5031401;28;20017;-56
2022/05/20 02:34:50;;;;;;;16.63;9.35;;;17.00;99.90;;;;;;5031301;28;20188;-58
2022/05/20 02:37:21;;;;;;;18.10;9.27;;;17.10;99.90;;;;;;5032547;28;20480;-59
2022/05/20 02:39:47;;;;;;;23.00;10.15;;;17.10;99.90;;;;;;5032031;28;20124;-59
2022/05/20 02:42:13;;;;;;;19.00;10.02;;;17.10;99.90;;;;;;5032396;28;20041;-58
2022/05/20 02:44:39;;;;;;;47.85;9.90;;;17.20;99.90;;;;;;5031073;28;20025;-59
2022/05/20 02:47:05;;;;;;;50.92;12.20;;;17.10;99.90;;;;;;5031247;28;20064;-59
2022/05/20 02:49:31;;;;;;;29.10;11.40;;;17.20;99.90;;;;;;5031268;28;20037;-57
2022/05/20 02:51:56;;;;;;;21.42;10.82;;;17.10;99.90;;;;;;5032392;28;20013;-59
2022/05/20 02:54:22;;;;;;;19.30;9.52;;;17.10;99.90;;;;;;5031072;28;20018;-56
2022/05/20 02:56:47;;;;;;;20.10;10.60;;;17.20;99.90;;;;;;5032526;28;20025;-54
2022/05/20 03:04:45;;;;;;;15.82;9.43;;;17.40;99.90;;;;;;5036195;28;20079;-56
2022/05/20 03:07:10;;;;;;;18.65;10.05;;;17.40;99.90;;;;;;5034774;28;20108;-58
2022/05/20 03:09:36;;;;;;;23.42;11.63;;;17.50;99.90;;;;;;5034571;28;20021;-57
2022/05/20 03:12:02;;;;;;;21.90;11.60;;;17.50;99.90;;;;;;5034664;28;20057;-57
2022/05/20 03:14:28;;;;;;;19.30;10.00;;;17.50;99.90;;;;;;5035429;28;20124;-58
2022/05/20 03:16:54;;;;;;;19.58;9.18;;;17.50;99.90;;;;;;5036210;28;20017;-57
2022/05/20 03:19:20;;;;;;;16.73;9.13;;;17.50;99.90;;;;;;5034550;28;20032;-57
2022/05/20 03:21:46;;;;;;;89.00;11.60;;;17.60;99.90;;;;;;5035216;28;20017;-58
2022/05/20 03:24:12;;;;;;;44.50;10.70;;;17.50;99.90;;;;;;5036151;28;20044;-55
2022/05/20 03:26:38;;;;;;;51.20;11.50;;;17.40;99.90;;;;;;5035562;28;20567;-58
2022/05/20 03:29:05;;;;;;;71.45;12.02;;;17.30;99.90;;;;;;5034642;28;20132;-56
2022/05/20 03:31:37;;;;;;;29.80;11.23;;;17.30;99.90;;;;;;5034266;28;20502;-57
2022/05/20 03:34:05;;;;;;;55.55;11.57;;;17.20;99.90;;;;;;5034267;28;20084;-57
2022/05/20 03:36:39;;;;;;;96.07;12.82;;;17.20;99.90;;;;;;5035032;28;20049;-56
2022/05/20 03:39:06;;;;;;;82.13;12.52;;;17.20;99.90;;;;;;5034171;28;20037;-57
2022/05/20 03:41:33;;;;;;;70.60;11.68;;;17.10;99.90;;;;;;5034805;28;20117;-57
2022/05/20 03:43:59;;;;;;;31.25;10.50;;;17.10;99.90;;;;;;5034812;28;20044;-56
2022/05/20 03:46:25;;;;;;;30.90;10.15;;;17.10;99.90;;;;;;5035292;28;20531;-56
2022/05/20 03:48:51;;;;;;;14.70;8.02;;;17.10;99.90;;;;;;5034372;28;20021;-57
2022/05/20 03:51:17;;;;;;;28.50;8.45;;;17.10;99.90;;;;;;5034009;28;20018;-56
2022/05/20 03:53:43;;;;;;;16.08;8.63;;;17.20;99.90;;;;;;5034135;28;20022;-58
2022/05/20 03:56:09;;;;;;;14.65;7.25;;;17.30;99.90;;;;;;5035242;28;20056;-56
2022/05/20 03:58:35;;;;;;;24.42;9.27;;;17.40;99.90;;;;;;5034071;28;20160;-55
2022/05/20 04:03:46;;;;;;;14.50;7.95;;;17.40;99.90;;;;;;5035615;28;20121;-54
2022/05/20 04:06:13;;;;;;;16.75;9.20;;;17.30;99.90;;;;;;5033506;28;20068;-58
2022/05/20 04:08:38;;;;;;;12.68;7.72;;;17.30;99.90;;;;;;5033636;28;20029;-58
2022/05/20 04:11:06;;;;;;;42.25;10.20;;;17.30;99.90;;;;;;5034350;28;20044;-56
2022/05/20 04:13:32;;;;;;;16.10;8.70;;;17.30;99.90;;;;;;5034773;28;20040;-57
2022/05/20 04:15:58;;;;;;;16.48;9.23;;;17.30;99.90;;;;;;5033862;28;20063;-57
2022/05/20 04:18:24;;;;;;;15.75;8.68;;;17.40;99.90;;;;;;5033506;28;20098;-59
2022/05/20 04:20:50;;;;;;;20.02;10.57;;;17.60;99.90;;;;;;5034899;28;20100;-57
2022/05/20 04:23:17;;;;;;;18.48;9.75;;;17.50;99.90;;;;;;5033289;28;20033;-56
2022/05/20 04:25:47;;;;;;;15.18;7.78;;;17.60;99.90;;;;;;5034631;28;20034;-59
2022/05/20 04:28:14;;;;;;;13.68;7.15;;;17.60;99.90;;;;;;5035071;28;20071;-56
2022/05/20 04:30:39;;;;;;;85.68;12.85;;;17.70;99.90;;;;;;5034542;28;20026;-53
2022/05/20 04:33:06;;;;;;;60.83;11.95;;;17.60;99.90;;;;;;5033848;28;20028;-57
2022/05/20 04:35:32;;;;;;;49.60;11.15;;;17.40;99.90;;;;;;5033483;28;20041;-58
2022/05/20 04:37:58;;;;;;;52.13;11.48;;;17.10;99.90;;;;;;5034389;28;20025;-58
2022/05/20 04:40:23;;;;;;;39.35;10.60;;;16.90;99.90;;;;;;5033958;28;20108;-54
2022/05/20 04:48:32;;;;;;;39.97;10.93;;;16.60;99.90;;;;;;4981765;28;20083;-51
2022/05/20 04:50:58;;;;;;;33.22;10.57;;;16.60;99.90;;;;;;5034794;28;20052;-51
2022/05/20 04:56:08;;;;;;;42.85;12.93;;;16.50;99.90;;;;;;5034833;28;20160;-52
2022/05/20 04:58:33;;;;;;;59.33;14.52;;;16.40;99.90;;;;;;5033789;28;20116;-51
2022/05/20 05:00:59;;;;;;;40.50;12.38;;;16.30;99.90;;;;;;5033299;28;20051;-58
2022/05/20 05:03:25;;;;;;;42.15;12.85;;;16.30;99.90;;;;;;5033428;28;20120;-57
2022/05/20 05:05:51;;;;;;;47.05;13.73;;;16.40;99.90;;;;;;5034277;28;20024;-58
2022/05/20 05:08:17;;;;;;;53.20;15.10;;;16.30;99.90;;;;;;5034547;28;20091;-58
2022/05/20 05:10:44;;;;;;;16.40;8.82;;;16.30;99.90;;;;;;5033261;28;20111;-58
2022/05/20 05:13:11;;;;;;;21.15;9.93;;;16.40;99.90;;;;;;5033285;28;20026;-59
2022/05/20 05:15:37;;;;;;;59.67;16.95;;;16.50;99.90;;;;;;5032930;28;20025;-58
2022/05/20 05:18:12;;;;;;;68.38;15.20;;;16.60;99.90;;;;;;5033251;28;20036;-58
2022/05/20 05:20:50;;;;;;;34.97;12.73;;;16.40;99.90;;;;;;5033100;28;20049;-56
2022/05/20 05:23:16;;;;;;;66.05;16.73;;;16.50;99.90;;;;;;5032511;28;20025;-58
2022/05/20 05:25:43;;;;;;;90.55;21.98;;;16.60;99.90;;;;;;5032797;28;20028;-53
2022/05/20 05:28:09;;;;;;;29.60;12.30;;;16.60;99.90;;;;;;5034051;28;20423;-54
2022/05/20 05:30:35;;;;;;;40.25;14.68;;;16.70;99.90;;;;;;5034281;28;20025;-54
2022/05/20 05:33:00;;;;;;;17.50;10.30;;;16.80;99.90;;;;;;5033944;28;20021;-56
2022/05/20 05:35:29;;;;;;;17.88;9.93;;;16.80;99.90;;;;;;5032507;28;20087;-55
2022/05/20 05:37:55;;;;;;;23.30;11.40;;;16.80;99.90;;;;;;5032609;28;20364;-57
2022/05/20 05:40:25;;;;;;;23.67;12.70;;;17.00;99.90;;;;;;5034103;28;20057;-54
2022/05/20 05:42:51;;;;;;;23.70;10.90;;;16.90;99.90;;;;;;5032529;28;20025;-56
2022/05/20 05:45:20;;;;;;;37.53;13.90;;;17.00;99.90;;;;;;5033671;28;20029;-58
2022/05/20 05:47:48;;;;;;;61.78;18.02;;;17.00;99.90;;;;;;5033407;28;20117;-58
2022/05/20 05:50:14;;;;;;;46.55;15.35;;;17.10;99.90;;;;;;5033651;28;20025;-52
2022/05/20 05:52:39;;;;;;;19.33;9.90;;;17.00;99.90;;;;;;5034192;28;20052;-55
2022/05/20 05:55:05;;;;;;;49.90;16.77;;;17.00;99.90;;;;;;5033456;28;20053;-54
2022/05/20 05:57:31;;;;;;;42.58;15.38;;;17.00;99.90;;;;;;5033823;28;20029;-54
2022/05/20 05:59:56;;;;;;;55.47;17.27;;;16.80;99.90;;;;;;5033519;28;20053;-56
2022/05/20 06:02:22;;;;;;;32.90;14.25;;;16.80;99.90;;;;;;5033457;28;20387;-55
2022/05/20 06:04:49;;;;;;;56.22;18.05;;;16.90;99.90;;;;;;5032103;28;20029;-54
2022/05/20 06:07:15;;;;;;;25.40;11.80;;;17.00;99.90;;;;;;5033430;28;20018;-53
2022/05/20 06:09:41;;;;;;;32.33;13.13;;;17.10;99.90;;;;;;5032221;28;20026;-55
2022/05/20 06:12:08;;;;;;;60.53;19.20;;;17.20;99.90;;;;;;5033927;28;20029;-61
2022/05/20 06:14:33;;;;;;;75.25;20.88;;;17.30;99.90;;;;;;5033262;28;20026;-57
2022/05/20 06:16:59;;;;;;;60.83;17.38;;;17.30;99.90;;;;;;5033374;28;20022;-59
2022/05/20 06:19:25;;;;;;;57.60;18.67;;;17.10;99.90;;;;;;5032136;28;20053;-58
2022/05/20 06:21:51;;;;;;;59.20;20.13;;;17.20;99.90;;;;;;5032307;28;20029;-57
2022/05/20 06:24:17;;;;;;;69.63;19.65;;;17.40;99.90;;;;;;5032328;28;20025;-56
2022/05/20 06:26:43;;;;;;;54.05;18.05;;;17.50;99.90;;;;;;5031947;28;20093;-56
2022/05/20 06:29:10;;;;;;;60.03;19.55;;;17.40;99.90;;;;;;5033158;28;20022;-56
2022/05/20 06:31:35;;;;;;;20.50;10.07;;;17.50;99.90;;;;;;5033188;28;20021;-58
2022/05/20 06:34:01;;;;;;;39.42;15.13;;;17.70;99.90;;;;;;5032987;28;20058;-56
2022/05/20 06:41:55;;;;;;;38.65;16.90;;;17.40;99.90;;;;;;5037790;28;20036;-57
2022/05/20 06:44:22;;;;;;;57.00;19.77;;;17.40;99.90;;;;;;5036745;28;20120;-54
2022/05/20 06:46:47;;;;;;;52.45;20.17;;;17.40;99.90;;;;;;5036935;28;20021;-59
2022/05/20 06:49:14;;;;;;;36.15;16.67;;;17.50;99.90;;;;;;5036682;28;20018;-58
2022/05/20 06:51:39;;;;;;;47.17;19.23;;;17.60;99.90;;;;;;5035855;28;20112;-56
2022/05/20 06:54:08;;;;;;;44.45;17.73;;;17.80;99.90;;;;;;5035935;28;20116;-54
2022/05/20 06:56:34;;;;;;;52.15;19.67;;;17.60;99.90;;;;;;5035986;28;20053;-56
2022/05/20 06:59:02;;;;;;;37.35;17.33;;;17.60;99.90;;;;;;5036375;28;20098;-57
2022/05/20 07:01:28;;;;;;;39.72;17.55;;;17.40;99.90;;;;;;5035677;28;20028;-57
2022/05/20 07:03:54;;;;;;;51.63;19.23;;;17.60;99.90;;;;;;5035850;28;20025;-58
2022/05/20 07:06:21;;;;;;;35.63;17.52;;;17.70;99.90;;;;;;5035405;28;20440;-54
2022/05/20 07:08:48;;;;;;;38.20;17.27;;;17.70;99.90;;;;;;5035488;28;20040;-54
2022/05/20 07:11:19;;;;;;;33.15;17.35;;;17.80;99.90;;;;;;5036577;28;20014;-58
2022/05/20 07:13:45;;;;;;;30.53;15.63;;;18.20;99.90;;;;;;5035382;28;20048;-55
2022/05/20 07:16:11;;;;;;;26.35;13.15;;;18.40;99.90;;;;;;5035567;28;20057;-56
2022/05/20 07:18:37;;;;;;;19.67;10.18;;;18.70;99.90;;;;;;5035264;28;20061;-55
2022/05/20 07:21:03;;;;;;;19.63;10.57;;;18.70;99.90;;;;;;5036506;28;20033;-59
2022/05/20 07:23:31;;;;;;;17.73;10.05;;;18.70;99.90;;;;;;5035235;28;20079;-58
2022/05/20 07:25:57;;;;;;;16.98;10.68;;;18.80;99.90;;;;;;5036337;28;20025;-58
2022/05/20 07:28:24;;;;;;;17.75;11.20;;;19.00;99.90;;;;;;5035138;28;20018;-55
2022/05/20 07:30:50;;;;;;;18.95;9.95;;;18.80;99.90;;;;;;5035501;28;20112;-57
2022/05/20 07:33:16;;;;;;;18.23;11.10;;;19.00;99.90;;;;;;5036214;28;20040;-57
2022/05/20 07:35:41;;;;;;;18.90;11.32;;;19.30;99.90;;;;;;5034833;28;20049;-56
2022/05/20 07:38:08;;;;;;;22.63;11.15;;;19.40;99.90;;;;;;5035955;28;20038;-57
2022/05/20 07:40:34;;;;;;;21.30;12.85;;;19.30;99.90;;;;;;5036377;28;20025;-59
2022/05/20 07:42:59;;;;;;;22.70;14.05;;;19.10;99.90;;;;;;5035147;28;20075;-54
2022/05/20 07:45:33;;;;;;;22.75;12.82;;;19.20;99.90;;;;;;5033796;28;20036;-57
2022/05/20 07:47:59;;;;;;;16.42;10.07;;;19.50;99.90;;;;;;5034945;28;20021;-57
2022/05/20 07:50:24;;;;;;;18.45;9.60;;;20.00;99.90;;;;;;5035577;28;20494;-57
2022/05/20 07:55:44;;;;;;;16.25;9.73;;;20.60;99.90;;;;;;5036195;28;20036;-57
2022/05/20 07:58:12;;;;;;;14.05;9.45;;;21.10;99.90;;;;;;5034535;28;20029;-57
2022/05/20 08:00:39;;;;;;;11.00;6.40;;;21.50;99.90;;;;;;5035331;28;20121;-57
2022/05/20 08:03:06;;;;;;;12.75;9.00;;;22.10;99.90;;;;;;5034511;28;20041;-57
2022/05/20 08:05:33;;;;;;;11.32;8.45;;;22.40;99.90;;;;;;5034524;28;20029;-58
2022/05/20 08:08:02;;;;;;;12.95;8.90;;;22.60;99.90;;;;;;5034392;28;20031;-53
2022/05/20 08:10:31;;;;;;;12.52;8.57;;;22.80;99.90;;;;;;5035587;28;20107;-54
2022/05/20 08:12:57;;;;;;;15.43;9.23;;;23.00;99.90;;;;;;5034358;28;20026;-52
2022/05/20 08:15:24;;;;;;;10.82;7.97;;;23.30;99.90;;;;;;5034150;28;20033;-57
2022/05/20 08:17:50;;;;;;;16.20;9.98;;;23.70;99.90;;;;;;5034442;28;20026;-61
2022/05/20 08:20:25;;;;;;;15.48;9.10;;;24.70;99.90;;;;;;5034474;28;20100;-57
2022/05/20 08:22:53;;;;;;;11.73;8.65;;;25.40;99.90;;;;;;5035062;28;20029;-57
2022/05/20 08:25:19;;;;;;;12.52;8.00;;;26.20;99.90;;;;;;5035286;28;20068;-59
2022/05/20 08:27:45;;;;;;;10.60;6.53;;;26.40;99.90;;;;;;5034008;28;20032;-60
2022/05/20 08:30:15;;;;;;;9.02;6.90;;;26.50;99.90;;;;;;5033827;28;20044;-60
2022/05/20 08:32:41;;;;;;;15.25;6.75;;;26.80;99.90;;;;;;5033890;28;20031;-60
2022/05/20 08:35:07;;;;;;;8.77;6.93;;;27.70;99.90;;;;;;5033698;28;20041;-61
2022/05/20 08:37:37;;;;;;;7.10;5.80;;;27.70;99.90;;;;;;5033923;28;20026;-58
2022/05/20 08:40:04;;;;;;;6.50;4.85;;;27.90;99.90;;;;;;5034665;28;20128;-61
2022/05/20 08:42:33;;;;;;;9.40;7.07;;;29.00;99.90;;;;;;5034829;28;20036;-61
2022/05/20 08:45:02;;;;;;;8.02;6.90;;;30.00;99.90;;;;;;5034757;28;20083;-59
2022/05/20 08:47:41;;;;;;;9.27;6.78;;;30.00;99.90;;;;;;5033701;28;20060;-61
2022/05/20 08:50:20;;;;;;;7.78;6.15;;;29.90;99.90;;;;;;5034998;28;20048;-61
2022/05/20 08:52:49;;;;;;;8.32;6.20;;;30.30;99.90;;;;;;5033755;28;20028;-61
2022/05/20 08:55:14;;;;;;;5.60;3.60;;;30.60;99.90;;;;;;5033449;28;20021;-61
2022/05/20 08:57:48;;;;;;;7.78;5.85;;;31.70;99.90;;;;;;5032269;28;20036;-60
2022/05/20 09:00:15;;;;;;;7.13;5.30;;;32.90;99.90;;;;;;5034591;28;20021;-61
2022/05/20 09:02:41;;;;;;;9.80;6.07;;;33.20;99.90;;;;;;5034612;28;20075;-61
2022/05/20 09:05:31;;;;;;;7.30;4.38;;;32.60;99.90;;;;;;5034434;28;20390;-61
2022/05/20 09:08:07;;;;;;;10.17;6.63;;;32.10;99.90;;;;;;5034771;28;20109;-61
2022/05/20 09:10:33;;;;;;;6.35;5.75;;;31.30;99.90;;;;;;5034160;28;20179;-61
2022/05/20 09:13:10;;;;;;;6.20;4.55;;;31.30;99.90;;;;;;5033182;28;20542;-62
2022/05/20 09:15:46;;;;;;;7.00;5.28;;;32.00;99.90;;;;;;5033528;28;20028;-62
2022/05/20 09:18:23;;;;;;;7.68;4.55;;;32.00;99.90;;;;;;5033603;28;20033;-61
2022/05/20 09:20:51;;;;;;;6.25;4.55;;;30.70;99.90;;;;;;5033338;28;20034;-60
2022/05/20 09:23:20;;;;;;;4.38;3.17;;;30.80;99.90;;;;;;5034288;28;20037;-62
2022/05/20 09:25:58;;;;;;;4.90;2.88;;;31.20;99.90;;;;;;5032636;28;20397;-61
2022/05/20 09:28:41;;;;;;;6.15;2.90;;;30.80;99.90;;;;;;5034071;28;20029;-61
2022/05/20 09:31:24;;;;;;;7.25;4.63;;;30.60;99.90;;;;;;5033096;28;20026;-61
2022/05/20 09:34:13;;;;;;;10.32;5.25;;;30.40;99.90;;;;;;5033824;28;20037;-61
2022/05/20 09:37:00;;;;;;;7.15;5.60;;;29.70;99.90;;;;;;5033956;28;20068;-60
2022/05/20 09:39:31;;;;;;;5.00;4.50;;;28.00;99.90;;;;;;5033611;28;20029;-60
2022/05/20 09:42:04;;;;;;;4.78;4.15;;;27.10;99.90;;;;;;5034190;28;20029;-60
2022/05/20 09:44:37;;;;;;;7.00;4.00;;;26.80;99.90;;;;;;5034063;28;20021;-58
2022/05/20 09:47:22;;;;;;;9.90;5.43;;;27.60;99.90;;;;;;5032505;28;20510;-60
2022/05/20 09:50:22;;;;;;;5.85;5.30;;;27.50;99.90;;;;;;5033919;28;20026;-60
2022/05/20 09:52:56;;;;;;;6.70;5.13;;;27.20;99.90;;;;;;5028369;28;20064;-61
2022/05/20 09:55:40;;;;;;;7.93;5.20;;;27.30;99.90;;;;;;5033670;28;20276;-60
2022/05/20 09:58:15;;;;;;;7.70;5.10;;;27.20;99.90;;;;;;5032296;28;20395;-57
2022/05/20 10:00:47;;;;;;;5.72;3.70;;;26.60;99.90;;;;;;5032332;28;20029;-58
2022/05/20 10:06:40;;;;;;;5.93;4.57;;;26.20;99.90;;;;;;5033841;28;20164;-58
2022/05/20 10:09:21;;;;;;;6.45;4.22;;;26.70;99.90;;;;;;5033551;28;20451;-56
2022/05/20 10:11:56;;;;;;;6.63;4.68;;;27.60;99.90;;;;;;5033155;28;20026;-52
2022/05/20 10:14:24;;;;;;;7.50;3.20;;;27.90;99.90;;;;;;5033392;28;20036;-58
2022/05/20 10:17:31;;;;;;;8.48;5.00;;;29.00;99.90;;;;;;5032249;28;20025;-59
2022/05/20 10:20:14;;;;;;;5.88;5.15;;;29.90;99.90;;;;;;5032711;28;20021;-59
2022/05/20 10:22:49;;;;;;;4.90;4.28;;;31.00;99.90;;;;;;5033210;28;20029;-59
2022/05/20 10:25:38;;;;;;;10.65;4.90;;;30.80;99.90;;;;;;5033484;28;20029;-58
2022/05/20 10:34:14;;;;;;;8.45;5.38;;;29.30;99.90;;;;;;5033493;28;20028;-64
2022/05/20 10:37:16;;;;;;;8.43;5.45;;;28.50;99.90;;;;;;5033609;28;20021;-57
2022/05/20 10:40:03;;;;;;;7.90;5.28;;;27.70;99.90;;;;;;5032556;28;20040;-59
2022/05/20 10:42:47;;;;;;;8.15;3.17;;;27.10;99.90;;;;;;4992677;28;20034;-60
2022/05/20 10:48:46;;;;;;;10.45;4.80;;;28.00;99.90;;;;;;5033617;28;20510;-58
2022/05/20 10:51:11;;;;;;;7.65;6.25;;;27.40;99.90;;;;;;5033439;28;20024;-59
2022/05/20 10:54:22;;;;;;;7.50;5.97;;;27.20;99.90;;;;;;5031700;28;20022;-59
2022/05/20 10:57:15;;;;;;;5.07;4.57;;;26.20;99.90;;;;;;4972210;28;20074;-58
2022/05/20 10:59:42;;;;;;;6.95;5.40;;;26.00;99.90;;;;;;5033035;28;20040;-59
2022/05/20 11:02:24;;;;;;;6.68;4.60;;;26.00;99.90;;;;;;5033193;28;20022;-59
2022/05/20 11:05:24;;;;;;;6.30;5.00;;;25.80;99.90;;;;;;5032817;28;20426;-59
2022/05/20 11:08:07;;;;;;;8.82;5.93;;;26.00;99.90;;;;;;4981977;28;20037;-58
2022/05/20 11:10:39;;;;;;;10.82;6.72;;;25.40;99.90;;;;;;5031798;28;20036;-58
2022/05/20 11:13:46;;;;;;;5.00;4.32;;;25.30;99.90;;;;;;5031902;28;20064;-58
2022/05/20 11:16:33;;;;;;;12.30;5.82;;;25.50;99.90;;;;;;5032820;28;20026;-59
2022/05/20 11:19:16;;;;;;;10.48;6.13;;;25.90;99.90;;;;;;5031606;28;20395;-58
2022/05/20 11:21:57;;;;;;;10.52;6.72;;;25.40;99.90;;;;;;5034849;28;20117;-58
2022/05/20 11:24:53;;;;;;;9.97;5.60;;;25.00;99.90;;;;;;5036634;28;20055;-58
2022/05/20 11:27:48;;;;;;;13.57;5.82;;;25.10;99.90;;;;;;5035143;28;20272;-57
2022/05/20 11:30:33;;;;;;;12.95;5.90;;;25.10;99.90;;;;;;5036560;28;20093;-60
2022/05/20 11:33:24;;;;;;;12.13;6.63;;;25.10;99.90;;;;;;5035121;28;20022;-57
2022/05/20 11:36:42;;;;;;;6.22;5.40;;;25.10;99.90;;;;;;5035133;28;20116;-59
2022/05/20 11:39:37;;;;;;;11.93;7.65;;;25.60;99.90;;;;;;4975662;28;20035;-54
2022/05/20 11:42:24;;;;;;;9.63;6.80;;;25.30;99.90;;;;;;4975370;28;20035;-53
2022/05/20 11:45:16;;;;;;;12.25;7.95;;;25.20;99.90;;;;;;5027804;28;20124;-53
2022/05/20 11:47:56;;;;;;;;;;;24.90;99.90;;;;;;5036528;28;20034;-56
2022/05/20 11:50:49;;;;;;;13.23;8.50;;;24.80;99.90;;;;;;5036107;28;20283;-56
2022/05/20 11:53:32;;;;;;;17.88;8.45;;;24.70;99.90;;;;;;5036124;28;20018;-55
2022/05/20 11:56:08;;;;;;;14.55;7.40;;;24.70;99.90;;;;;;5035996;28;20093;-54
2022/05/20 11:58:48;;;;;;;11.18;7.65;;;25.10;99.90;;;;;;5035035;28;20392;-56
2022/05/20 12:01:14;;;;;;;10.23;7.20;;;25.50;99.90;;;;;;5035524;28;20056;-54
2022/05/20 12:06:27;;;;;;;18.40;8.88;;;25.90;99.90;;;;;;5035515;28;20051;-56
2022/05/20 12:08:57;;;;;;;16.55;9.98;;;25.60;99.90;;;;;;5034328;28;20491;-55
2022/05/20 12:11:27;;;;;;;16.20;9.15;;;25.40;99.90;;;;;;5034597;28;20029;-53
2022/05/20 12:14:09;;;;;;;12.15;7.47;;;25.60;99.90;;;;;;5034216;28;20029;-55
2022/05/20 12:16:54;;;;;;;18.33;10.05;;;25.70;99.90;;;;;;5035470;28;20033;-53
2022/05/20 12:25:34;;;;;;;14.38;8.45;;;25.90;99.90;;;;;;5035488;28;20036;-56
2022/05/20 12:28:03;;;;;;;17.08;8.95;;;26.10;99.90;;;;;;5035603;28;20029;-56
2022/05/20 12:31:12;;;;;;;14.88;11.20;;;26.20;99.90;;;;;;5035094;28;20021;-55
2022/05/20 12:34:00;;;;;;;20.02;11.50;;;25.90;99.90;;;;;;5018552;28;20029;-53
2022/05/20 12:36:28;;;;;;;17.27;12.00;;;25.80;99.90;;;;;;5033797;28;20045;-51
2022/05/20 12:39:06;;;;;;;16.15;10.77;;;25.70;99.90;;;;;;5034605;28;20032;-56
2022/05/20 12:41:50;;;;;;;18.83;10.32;;;25.60;99.90;;;;;;5033719;28;20116;-56
2022/05/20 12:44:15;;;;;;;12.32;8.70;;;25.70;99.90;;;;;;5034913;28;20029;-52
2022/05/20 12:47:04;;;;;;;17.85;12.57;;;25.90;99.90;;;;;;5035012;28;20025;-54
2022/05/20 12:49:36;;;;;;;18.83;11.82;;;25.90;99.90;;;;;;5034381;28;20022;-54
2022/05/20 12:52:27;;;;;;;20.00;12.98;;;25.70;99.90;;;;;;5035078;28;20107;-51
2022/05/20 12:54:59;;;;;;;20.27;12.25;;;25.50;99.90;;;;;;5033534;28;20021;-53
2022/05/20 12:57:26;;;;;;;19.40;14.27;;;25.20;99.90;;;;;;5034686;28;20414;-52
2022/05/20 13:00:04;;;;;;;21.02;15.65;;;24.90;99.90;;;;;;5033468;28;20029;-54
2022/05/20 13:02:34;;;;;;;21.65;14.82;;;24.80;99.90;;;;;;5033584;28;20516;-51
2022/05/20 13:05:14;;;;;;;24.77;14.77;;;24.90;99.90;;;;;;5033759;28;20102;-53
2022/05/20 13:07:42;;;;;;;16.55;12.88;;;24.70;99.90;;;;;;5034622;28;20100;-54
2022/05/20 13:10:20;;;;;;;22.90;13.18;;;24.80;99.90;;;;;;5034524;28;20036;-51
2022/05/20 13:12:51;;;;;;;15.98;10.93;;;24.90;99.90;;;;;;5034646;28;20100;-54
2022/05/20 13:15:19;;;;;;;12.23;8.97;;;25.10;99.90;;;;;;5034297;28;20022;-53
2022/05/20 13:17:51;;;;;;;13.38;8.57;;;25.30;99.90;;;;;;5034563;28;20099;-55
2022/05/20 13:20:17;;;;;;;12.93;9.70;;;25.50;99.90;;;;;;5033042;28;20113;-52
2022/05/20 13:22:50;;;;;;;12.63;8.40;;;25.60;99.90;;;;;;5034217;28;20108;-55
2022/05/20 13:25:17;;;;;;;12.70;9.60;;;25.70;99.90;;;;;;5032827;28;20092;-54
2022/05/20 13:27:45;;;;;;;17.60;11.52;;;25.70;99.90;;;;;;5034349;28;20025;-54
2022/05/20 13:30:30;;;;;;;14.57;9.65;;;25.70;99.90;;;;;;5032997;28;20085;-54
2022/05/20 13:33:05;;;;;;;12.98;10.80;;;25.70;99.90;;;;;;5033510;28;20028;-55
2022/05/20 13:35:39;;;;;;;16.42;9.13;;;25.70;99.90;;;;;;5032719;28;20037;-54
2022/05/20 13:38:04;;;;;;;10.80;8.50;;;25.80;99.90;;;;;;5034409;28;20112;-53
2022/05/20 13:40:38;;;;;;;11.95;8.10;;;25.90;99.90;;;;;;5033103;28;20064;-53
2022/05/20 13:43:04;;;;;;;12.70;6.60;;;26.00;99.90;;;;;;5033987;28;20026;-53
2022/05/20 13:51:10;;;;;;;12.20;8.65;;;25.90;99.90;;;;;;5034002;28;20072;-56
2022/05/20 13:53:38;;;;;;;14.73;9.25;;;25.70;99.90;;;;;;5032918;28;20028;-54